sensor_id;sensor_type;location;lat;lon;timestamp;pressure;altitude;pressure_sealevel;temperature;humidity
62655;BME280;48717;55.556;37.816;2023-01-29T00:01:55;99619.06;;;-3.45;100.00
62655;BME280;48717;55.556;37.816;2023-01-29T00:04:22;99609.00;;;-3.40;100.00
62655;BME280;48717;55.556;37.816;2023-01-29T00:06:50;99611.66;;;-3.38;100.00
62655;BME280;48717;55.556;37.816;2023-01-29T00:09:17;99600.22;;;-3.44;100.00
62655;BME280;48717;55.556;37.816;2023-01-29T00:11:44;99610.47;;;-3.45;100.00
62655;BME280;48717;55.556;37.816;2023-01-29T00:14:12;99593.88;;;-3.50;100.00
62655;BME280;48717;55.556;37.816;2023-01-29T00:16:39;99612.53;;;-3.38;100.00
62655;BME280;48717;55.556;37.816;2023-01-29T00:19:07;99607.47;;;-3.36;100.00
62655;BME280;48717;55.556;37.816;2023-01-29T00:21:35;99603.19;;;-3.36;100.00
62655;BME280;48717;55.556;37.816;2023-01-29T00:24:03;99592.50;;;-3.44;100.00
62655;BME280;48717;55.556;37.816;2023-01-29T00:26:30;99598.13;;;-3.34;100.00
62655;BME280;48717;55.556;37.816;2023-01-29T00:28:57;99597.78;;;-3.41;100.00
62655;BME280;48717;55.556;37.816;2023-01-29T00:31:26;99599.25;;;-3.46;100.00
62655;BME280;48717;55.556;37.816;2023-01-29T00:33:54;99598.25;;;-3.31;100.00
62655;BME280;48717;55.556;37.816;2023-01-29T00:36:29;99559.47;;;-3.51;100.00
62655;BME280;48717;55.556;37.816;2023-01-29T00:39:04;99585.38;;;-3.31;100.00
62655;BME280;48717;55.556;37.816;2023-01-29T00:41:44;99586.34;;;-3.29;100.00
62655;BME280;48717;55.556;37.816;2023-01-29T00:44:32;99581.19;;;-3.29;100.00
62655;BME280;48717;55.556;37.816;2023-01-29T00:47:38;99545.69;;;-3.51;100.00
62655;BME280;48717;55.556;37.816;2023-01-29T00:50:09;99570.53;;;-3.35;100.00
62655;BME280;48717;55.556;37.816;2023-01-29T00:52:39;99577.97;;;-3.25;100.00
62655;BME280;48717;55.556;37.816;2023-01-29T00:55:09;99574.03;;;-3.35;100.00
62655;BME280;48717;55.556;37.816;2023-01-29T00:57:37;99579.88;;;-3.21;100.00
62655;BME280;48717;55.556;37.816;2023-01-29T01:00:07;99571.16;;;-3.23;100.00
62655;BME280;48717;55.556;37.816;2023-01-29T01:02:38;99542.69;;;-3.43;100.00
62655;BME280;48717;55.556;37.816;2023-01-29T01:05:25;99564.34;;;-3.22;100.00
62655;BME280;48717;55.556;37.816;2023-01-29T01:07:56;99576.25;;;-3.24;100.00
62655;BME280;48717;55.556;37.816;2023-01-29T01:10:35;99565.56;;;-3.32;100.00
62655;BME280;48717;55.556;37.816;2023-01-29T01:13:06;99577.97;;;-3.25;100.00
62655;BME280;48717;55.556;37.816;2023-01-29T01:18:14;99559.38;;;-3.36;100.00
62655;BME280;48717;55.556;37.816;2023-01-29T01:20:43;99567.47;;;-3.28;100.00
62655;BME280;48717;55.556;37.816;2023-01-29T01:23:12;99570.72;;;-3.32;100.00
62655;BME280;48717;55.556;37.816;2023-01-29T01:25:40;99571.69;;;-3.30;100.00
62655;BME280;48717;55.556;37.816;2023-01-29T01:28:08;99549.78;;;-3.38;100.00
62655;BME280;48717;55.556;37.816;2023-01-29T01:30:37;99529.19;;;-3.55;100.00
62655;BME280;48717;55.556;37.816;2023-01-29T01:36:29;99568.94;;;-3.33;100.00
62655;BME280;48717;55.556;37.816;2023-01-29T01:39:16;99551.38;;;-3.41;100.00
62655;BME280;48717;55.556;37.816;2023-01-29T01:41:54;99539.06;;;-3.46;100.00
62655;BME280;48717;55.556;37.816;2023-01-29T01:47:27;99541.63;;;-3.46;100.00
62655;BME280;48717;55.556;37.816;2023-01-29T01:50:00;99546.38;;;-3.37;100.00
62655;BME280;48717;55.556;37.816;2023-01-29T01:52:37;99530.47;;;-3.47;100.00
62655;BME280;48717;55.556;37.816;2023-01-29T01:55:12;99520.56;;;-3.56;100.00
62655;BME280;48717;55.556;37.816;2023-01-29T01:58:03;99556.25;;;-3.47;100.00
62655;BME280;48717;55.556;37.816;2023-01-29T02:03:19;99552.84;;;-3.46;100.00
62655;BME280;48717;55.556;37.816;2023-01-29T02:06:47;99532.78;;;-3.51;100.00
62655;BME280;48717;55.556;37.816;2023-01-29T02:12:27;99531.31;;;-3.46;100.00
62655;BME280;48717;55.556;37.816;2023-01-29T02:15:03;99538.34;;;-3.44;100.00
62655;BME280;48717;55.556;37.816;2023-01-29T02:17:31;99527.22;;;-3.43;100.00
62655;BME280;48717;55.556;37.816;2023-01-29T02:26:08;99507.66;;;-3.56;99.76
62655;BME280;48717;55.556;37.816;2023-01-29T02:32:10;99523.03;;;-3.57;99.10
62655;BME280;48717;55.556;37.816;2023-01-29T02:37:56;99448.41;;;-4.07;99.76
62655;BME280;48717;55.556;37.816;2023-01-29T02:40:31;99504.72;;;-3.63;99.20
62655;BME280;48717;55.556;37.816;2023-01-29T02:43:26;99509.38;;;-3.56;100.00
62655;BME280;48717;55.556;37.816;2023-01-29T02:49:45;99481.97;;;-3.54;98.93
62655;BME280;48717;55.556;37.816;2023-01-29T02:55:35;99487.78;;;-3.58;99.31
62655;BME280;48717;55.556;37.816;2023-01-29T02:58:23;99474.41;;;-3.51;99.72
62655;BME280;48717;55.556;37.816;2023-01-29T03:00:52;99478.25;;;-3.43;99.26
62655;BME280;48717;55.556;37.816;2023-01-29T03:03:34;99473.75;;;-3.47;98.99
62655;BME280;48717;55.556;37.816;2023-01-29T03:06:19;99484.06;;;-3.47;98.56
62655;BME280;48717;55.556;37.816;2023-01-29T03:12:25;99472.84;;;-3.47;95.95
62655;BME280;48717;55.556;37.816;2023-01-29T03:15:11;99465.03;;;-3.49;95.25
62655;BME280;48717;55.556;37.816;2023-01-29T03:21:46;99475.78;;;-3.58;94.95
62655;BME280;48717;55.556;37.816;2023-01-29T03:24:57;99455.28;;;-3.73;94.14
62655;BME280;48717;55.556;37.816;2023-01-29T03:27:56;99468.97;;;-3.74;92.74
62655;BME280;48717;55.556;37.816;2023-01-29T03:30:50;99428.25;;;-3.98;92.75
62655;BME280;48717;55.556;37.816;2023-01-29T03:34:30;99454.47;;;-3.88;92.80
62655;BME280;48717;55.556;37.816;2023-01-29T03:37:09;99451.22;;;-3.86;92.51
62655;BME280;48717;55.556;37.816;2023-01-29T03:39:40;99453.63;;;-3.89;91.61
62655;BME280;48717;55.556;37.816;2023-01-29T03:42:18;99442.28;;;-3.92;90.95
62655;BME280;48717;55.556;37.816;2023-01-29T03:45:15;99443.22;;;-3.90;90.45
62655;BME280;48717;55.556;37.816;2023-01-29T03:51:15;99433.56;;;-3.95;91.06
62655;BME280;48717;55.556;37.816;2023-01-29T03:53:54;99435.34;;;-3.94;91.17
62655;BME280;48717;55.556;37.816;2023-01-29T04:05:20;99419.88;;;-3.94;89.29
62655;BME280;48717;55.556;37.816;2023-01-29T04:08:09;99412.97;;;-3.95;90.32
62655;BME280;48717;55.556;37.816;2023-01-29T04:13:57;99391.75;;;-4.07;89.27
62655;BME280;48717;55.556;37.816;2023-01-29T04:16:32;99376.56;;;-4.19;89.93
62655;BME280;48717;55.556;37.816;2023-01-29T04:19:20;99395.41;;;-4.02;90.51
62655;BME280;48717;55.556;37.816;2023-01-29T04:22:20;99397.88;;;-4.05;90.77
62655;BME280;48717;55.556;37.816;2023-01-29T04:24:47;99398.44;;;-4.11;90.73
62655;BME280;48717;55.556;37.816;2023-01-29T04:27:51;99390.72;;;-4.11;90.44
62655;BME280;48717;55.556;37.816;2023-01-29T04:30:47;99402.38;;;-4.17;91.58
62655;BME280;48717;55.556;37.816;2023-01-29T04:36:40;99396.84;;;-4.25;92.67
62655;BME280;48717;55.556;37.816;2023-01-29T04:40:08;99397.56;;;-4.28;91.22
62655;BME280;48717;55.556;37.816;2023-01-29T04:43:37;99393.84;;;-4.33;92.96
62655;BME280;48717;55.556;37.816;2023-01-29T04:46:12;99386.13;;;-4.33;92.98
62655;BME280;48717;55.556;37.816;2023-01-29T04:51:49;99384.19;;;-4.37;92.63
62655;BME280;48717;55.556;37.816;2023-01-29T04:54:41;99384.88;;;-4.41;92.15
62655;BME280;48717;55.556;37.816;2023-01-29T05:00:12;99390.03;;;-4.41;92.66
62655;BME280;48717;55.556;37.816;2023-01-29T05:02:48;99368.19;;;-4.48;94.09
62655;BME280;48717;55.556;37.816;2023-01-29T05:05:18;99373.28;;;-4.50;92.92
62655;BME280;48717;55.556;37.816;2023-01-29T05:08:05;99357.38;;;-4.59;93.45
62655;BME280;48717;55.556;37.816;2023-01-29T05:10:34;99369.25;;;-4.44;93.48
62655;BME280;48717;55.556;37.816;2023-01-29T05:13:05;99372.66;;;-4.46;92.84
62655;BME280;48717;55.556;37.816;2023-01-29T05:16:12;99326.81;;;-4.69;93.54
62655;BME280;48717;55.556;37.816;2023-01-29T05:18:54;99349.66;;;-4.59;92.76
62655;BME280;48717;55.556;37.816;2023-01-29T05:21:25;99296.75;;;-4.87;92.48
62655;BME280;48717;55.556;37.816;2023-01-29T05:24:20;99372.78;;;-4.42;92.38
62655;BME280;48717;55.556;37.816;2023-01-29T05:26:49;99372.78;;;-4.42;92.56
62655;BME280;48717;55.556;37.816;2023-01-29T05:29:35;99349.50;;;-4.62;93.18
62655;BME280;48717;55.556;37.816;2023-01-29T05:32:02;99354.47;;;-4.49;93.31
62655;BME280;48717;55.556;37.816;2023-01-29T05:34:29;99351.91;;;-4.49;93.17
62655;BME280;48717;55.556;37.816;2023-01-29T05:36:58;99371.03;;;-4.43;92.30
62655;BME280;48717;55.556;37.816;2023-01-29T05:39:27;99337.56;;;-4.60;93.71
62655;BME280;48717;55.556;37.816;2023-01-29T05:41:56;99353.34;;;-4.54;92.63
62655;BME280;48717;55.556;37.816;2023-01-29T05:44:23;99358.63;;;-4.51;93.17
62655;BME280;48717;55.556;37.816;2023-01-29T05:46:51;99384.16;;;-4.39;93.43
62655;BME280;48717;55.556;37.816;2023-01-29T05:50:02;99363.94;;;-4.48;91.94
62655;BME280;48717;55.556;37.816;2023-01-29T05:52:29;99369.44;;;-4.41;91.81
62655;BME280;48717;55.556;37.816;2023-01-29T05:54:56;99372.97;;;-4.39;91.26
62655;BME280;48717;55.556;37.816;2023-01-29T05:57:23;99359.69;;;-4.47;90.99
62655;BME280;48717;55.556;37.816;2023-01-29T05:59:50;99374.88;;;-4.35;90.34
62655;BME280;48717;55.556;37.816;2023-01-29T06:02:17;99370.69;;;-4.33;91.22
62655;BME280;48717;55.556;37.816;2023-01-29T06:04:44;99361.19;;;-4.34;90.79
62655;BME280;48717;55.556;37.816;2023-01-29T06:07:12;99364.88;;;-4.29;89.33
62655;BME280;48717;55.556;37.816;2023-01-29T06:09:39;99377.13;;;-4.25;89.87
62655;BME280;48717;55.556;37.816;2023-01-29T06:12:14;99359.44;;;-4.35;89.96
62655;BME280;48717;55.556;37.816;2023-01-29T06:14:42;99373.44;;;-4.30;89.77
62655;BME280;48717;55.556;37.816;2023-01-29T06:17:09;99345.72;;;-4.52;89.39
62655;BME280;48717;55.556;37.816;2023-01-29T06:19:36;99353.66;;;-4.48;90.77
62655;BME280;48717;55.556;37.816;2023-01-29T06:22:03;99364.03;;;-4.29;91.40
62655;BME280;48717;55.556;37.816;2023-01-29T06:24:30;99376.25;;;-4.25;90.27
62655;BME280;48717;55.556;37.816;2023-01-29T06:26:59;99354.47;;;-4.32;91.44
62655;BME280;48717;55.556;37.816;2023-01-29T06:29:26;99376.31;;;-4.24;91.94
62655;BME280;48717;55.556;37.816;2023-01-29T06:31:53;99366.09;;;-4.22;92.74
62655;BME280;48717;55.556;37.816;2023-01-29T06:34:21;99350.91;;;-4.34;91.58
62655;BME280;48717;55.556;37.816;2023-01-29T06:36:48;99332.41;;;-4.43;91.92
62655;BME280;48717;55.556;37.816;2023-01-29T06:39:15;99367.53;;;-4.27;92.76
62655;BME280;48717;55.556;37.816;2023-01-29T06:41:43;99341.91;;;-4.42;94.23
62655;BME280;48717;55.556;37.816;2023-01-29T06:44:11;99272.94;;;-4.83;93.52
62655;BME280;48717;55.556;37.816;2023-01-29T06:46:38;99354.75;;;-4.26;93.56
62655;BME280;48717;55.556;37.816;2023-01-29T06:49:05;99350.50;;;-4.25;94.24
62655;BME280;48717;55.556;37.816;2023-01-29T06:51:32;99344.81;;;-4.36;94.51
62655;BME280;48717;55.556;37.816;2023-01-29T06:53:59;99313.28;;;-4.49;93.95
62655;BME280;48717;55.556;37.816;2023-01-29T06:56:27;99352.09;;;-4.27;93.16
62655;BME280;48717;55.556;37.816;2023-01-29T06:58:54;99297.59;;;-4.53;94.26
62655;BME280;48717;55.556;37.816;2023-01-29T07:01:21;99296.00;;;-4.51;93.44
62655;BME280;48717;55.556;37.816;2023-01-29T07:04:02;99245.94;;;-4.75;93.64
62655;BME280;48717;55.556;37.816;2023-01-29T07:06:36;99250.91;;;-4.78;93.30
62655;BME280;48717;55.556;37.816;2023-01-29T07:09:03;99335.84;;;-4.26;93.58
62655;BME280;48717;55.556;37.816;2023-01-29T07:11:33;99292.25;;;-4.58;93.46
62655;BME280;48717;55.556;37.816;2023-01-29T07:14:03;99183.72;;;-5.19;93.34
62655;BME280;48717;55.556;37.816;2023-01-29T07:16:37;99166.41;;;-5.21;94.66
62655;BME280;48717;55.556;37.816;2023-01-29T07:19:13;99261.09;;;-4.63;93.95
62655;BME280;48717;55.556;37.816;2023-01-29T07:21:41;99316.63;;;-4.33;94.27
62655;BME280;48717;55.556;37.816;2023-01-29T07:24:08;99282.25;;;-4.52;94.58
62655;BME280;48717;55.556;37.816;2023-01-29T07:26:36;99323.88;;;-4.26;94.47
62655;BME280;48717;55.556;37.816;2023-01-29T07:29:03;99306.56;;;-4.28;95.28
62655;BME280;48717;55.556;37.816;2023-01-29T07:31:31;99305.03;;;-4.25;95.12
62655;BME280;48717;55.556;37.816;2023-01-29T07:33:58;99305.34;;;-4.18;94.19
62655;BME280;48717;55.556;37.816;2023-01-29T07:36:26;99317.56;;;-4.14;95.34
62655;BME280;48717;55.556;37.816;2023-01-29T07:38:55;99308.72;;;-4.20;95.09
62655;BME280;48717;55.556;37.816;2023-01-29T07:41:22;99313.53;;;-4.09;95.38
62655;BME280;48717;55.556;37.816;2023-01-29T07:43:52;99309.91;;;-4.13;95.84
62655;BME280;48717;55.556;37.816;2023-01-29T07:47:03;99298.50;;;-4.18;95.66
62655;BME280;48717;55.556;37.816;2023-01-29T07:49:30;99313.66;;;-4.06;96.32
62655;BME280;48717;55.556;37.816;2023-01-29T07:51:57;99312.06;;;-4.04;96.35
62655;BME280;48717;55.556;37.816;2023-01-29T07:54:25;99309.19;;;-4.10;96.19
62655;BME280;48717;55.556;37.816;2023-01-29T07:56:55;99314.69;;;-4.21;95.70
62655;BME280;48717;55.556;37.816;2023-01-29T07:59:22;99320.53;;;-4.07;95.42
62655;BME280;48717;55.556;37.816;2023-01-29T08:01:50;99311.09;;;-4.06;94.93
62655;BME280;48717;55.556;37.816;2023-01-29T08:04:30;99326.69;;;-4.03;94.53
62655;BME280;48717;55.556;37.816;2023-01-29T08:06:57;99308.22;;;-4.12;95.12
62655;BME280;48717;55.556;37.816;2023-01-29T08:09:24;99318.16;;;-4.02;95.73
62655;BME280;48717;55.556;37.816;2023-01-29T08:11:51;99309.13;;;-3.94;95.78
62655;BME280;48717;55.556;37.816;2023-01-29T08:14:18;99255.63;;;-4.17;94.49
62655;BME280;48717;55.556;37.816;2023-01-29T08:16:45;99297.56;;;-3.84;93.85
62655;BME280;48717;55.556;37.816;2023-01-29T08:19:13;99304.22;;;-3.89;92.69
62655;BME280;48717;55.556;37.816;2023-01-29T08:21:40;99298.03;;;-3.92;93.21
62655;BME280;48717;55.556;37.816;2023-01-29T08:24:07;99278.94;;;-3.96;92.94
62655;BME280;48717;55.556;37.816;2023-01-29T08:26:34;99294.09;;;-3.84;92.06
62655;BME280;48717;55.556;37.816;2023-01-29T08:29:01;99267.47;;;-3.85;91.87
62655;BME280;48717;55.556;37.816;2023-01-29T08:31:29;99292.28;;;-3.69;91.08
62655;BME280;48717;55.556;37.816;2023-01-29T08:33:56;99285.22;;;-3.73;89.64
62655;BME280;48717;55.556;37.816;2023-01-29T08:36:24;99275.13;;;-3.86;89.15
62655;BME280;48717;55.556;37.816;2023-01-29T08:38:51;99239.44;;;-3.97;89.71
62655;BME280;48717;55.556;37.816;2023-01-29T08:41:18;99239.28;;;-4.00;89.18
62655;BME280;48717;55.556;37.816;2023-01-29T08:43:45;99265.53;;;-3.71;88.63
62655;BME280;48717;55.556;37.816;2023-01-29T08:46:13;99270.03;;;-3.67;87.82
62655;BME280;48717;55.556;37.816;2023-01-29T08:48:40;99275.34;;;-3.63;87.57
62655;BME280;48717;55.556;37.816;2023-01-29T08:51:07;99271.66;;;-3.69;87.58
62655;BME280;48717;55.556;37.816;2023-01-29T08:53:35;99270.84;;;-3.68;88.14
62655;BME280;48717;55.556;37.816;2023-01-29T08:56:02;99267.25;;;-3.71;86.86
62655;BME280;48717;55.556;37.816;2023-01-29T08:58:29;99269.53;;;-3.59;85.90
62655;BME280;48717;55.556;37.816;2023-01-29T09:01:04;99268.38;;;-3.46;85.87
62655;BME280;48717;55.556;37.816;2023-01-29T09:03:32;99263.94;;;-3.50;84.60
62655;BME280;48717;55.556;37.816;2023-01-29T09:05:59;99275.25;;;-3.47;83.80
62655;BME280;48717;55.556;37.816;2023-01-29T09:08:26;99251.31;;;-3.44;83.63
62655;BME280;48717;55.556;37.816;2023-01-29T09:10:53;99257.47;;;-3.41;83.86
62655;BME280;48717;55.556;37.816;2023-01-29T09:13:20;99259.53;;;-3.33;82.49
62655;BME280;48717;55.556;37.816;2023-01-29T09:15:48;99227.13;;;-3.46;82.25
62655;BME280;48717;55.556;37.816;2023-01-29T09:18:15;99259.53;;;-3.33;81.74
62655;BME280;48717;55.556;37.816;2023-01-29T09:20:42;99258.03;;;-3.28;80.90
62655;BME280;48717;55.556;37.816;2023-01-29T09:23:09;99256.44;;;-3.26;80.72
62655;BME280;48717;55.556;37.816;2023-01-29T09:25:37;99263.47;;;-3.22;81.17
62655;BME280;48717;55.556;37.816;2023-01-29T09:28:04;99253.16;;;-3.22;78.83
62655;BME280;48717;55.556;37.816;2023-01-29T09:30:32;99240.97;;;-3.26;79.45
62655;BME280;48717;55.556;37.816;2023-01-29T09:33:00;99240.97;;;-3.26;78.86
62655;BME280;48717;55.556;37.816;2023-01-29T09:35:27;99192.34;;;-3.56;77.10
62655;BME280;48717;55.556;37.816;2023-01-29T09:37:54;99255.06;;;-3.18;77.67
62655;BME280;48717;55.556;37.816;2023-01-29T09:40:26;99249.91;;;-3.18;78.14
62655;BME280;48717;55.556;37.816;2023-01-29T09:43:02;99235.31;;;-3.17;77.76
62655;BME280;48717;55.556;37.816;2023-01-29T09:45:30;99194.44;;;-3.47;78.46
62655;BME280;48717;55.556;37.816;2023-01-29T09:47:59;99220.03;;;-3.32;78.65
62655;BME280;48717;55.556;37.816;2023-01-29T09:50:37;99222.09;;;-3.25;78.23
62655;BME280;48717;55.556;37.816;2023-01-29T09:53:16;99211.03;;;-3.22;78.21
62655;BME280;48717;55.556;37.816;2023-01-29T09:55:49;99216.94;;;-3.25;77.57
62655;BME280;48717;55.556;37.816;2023-01-29T09:58:26;99200.78;;;-3.21;77.20
62655;BME280;48717;55.556;37.816;2023-01-29T10:23:50;99134.22;;;-3.49;77.75
62655;BME280;48717;55.556;37.816;2023-01-29T10:26:22;99187.22;;;-3.17;77.75
62655;BME280;48717;55.556;37.816;2023-01-29T10:28:51;99183.75;;;-3.17;77.20
62655;BME280;48717;55.556;37.816;2023-01-29T10:31:25;99174.56;;;-3.10;77.53
62655;BME280;48717;55.556;37.816;2023-01-29T10:36:43;99123.22;;;-3.25;77.36
62655;BME280;48717;55.556;37.816;2023-01-29T10:47:37;99140.78;;;-3.17;76.83
62655;BME280;48717;55.556;37.816;2023-01-29T10:50:33;99124.50;;;-3.16;77.00
62655;BME280;48717;55.556;37.816;2023-01-29T10:53:43;99102.78;;;-3.21;76.36
62655;BME280;48717;55.556;37.816;2023-01-29T10:59:01;99095.16;;;-3.18;75.91
62655;BME280;48717;55.556;37.816;2023-01-29T11:01:31;99096.94;;;-3.17;75.33
62655;BME280;48717;55.556;37.816;2023-01-29T11:04:01;99072.38;;;-3.08;75.93
62655;BME280;48717;55.556;37.816;2023-01-29T11:06:31;99071.28;;;-3.13;75.01
62655;BME280;48717;55.556;37.816;2023-01-29T11:09:07;99075.06;;;-3.05;74.79
62655;BME280;48717;55.556;37.816;2023-01-29T11:17:03;99064.72;;;-3.05;74.21
62655;BME280;48717;55.556;37.816;2023-01-29T11:19:43;99067.91;;;-3.12;74.16
62655;BME280;48717;55.556;37.816;2023-01-29T11:22:19;99076.69;;;-3.07;74.93
62655;BME280;48717;55.556;37.816;2023-01-29T11:25:07;99073.31;;;-3.06;74.73
62655;BME280;48717;55.556;37.816;2023-01-29T11:39:42;99045.72;;;-3.29;76.01
62655;BME280;48717;55.556;37.816;2023-01-29T11:46:05;99076.44;;;-3.13;75.91
62655;BME280;48717;55.556;37.816;2023-01-29T11:52:18;99052.41;;;-3.12;76.65
62655;BME280;48717;55.556;37.816;2023-01-29T11:57:37;99039.31;;;-3.17;76.64
62655;BME280;48717;55.556;37.816;2023-01-29T12:00:23;99041.22;;;-3.13;76.71
62655;BME280;48717;55.556;37.816;2023-01-29T12:03:12;99025.84;;;-3.31;76.81
62655;BME280;48717;55.556;37.816;2023-01-29T12:05:55;99061.22;;;-3.07;77.00
62655;BME280;48717;55.556;37.816;2023-01-29T12:08:23;99019.94;;;-3.29;77.66
62655;BME280;48717;55.556;37.816;2023-01-29T12:10:51;99063.47;;;-3.15;78.23
62655;BME280;48717;55.556;37.816;2023-01-29T12:13:33;99054.03;;;-3.15;78.59
62655;BME280;48717;55.556;37.816;2023-01-29T12:25:03;99037.94;;;-3.30;78.47
62655;BME280;48717;55.556;37.816;2023-01-29T12:28:02;99040.91;;;-3.21;79.59
62655;BME280;48717;55.556;37.816;2023-01-29T12:36:18;99042.16;;;-3.11;79.70
62655;BME280;48717;55.556;37.816;2023-01-29T12:38:48;99012.47;;;-3.22;79.24
62655;BME280;48717;55.556;37.816;2023-01-29T12:44:03;99046.16;;;-3.18;79.47
62655;BME280;48717;55.556;37.816;2023-01-29T12:46:39;99023.72;;;-3.20;79.46
62655;BME280;48717;55.556;37.816;2023-01-29T12:49:16;99033.16;;;-3.21;80.30
62655;BME280;48717;55.556;37.816;2023-01-29T12:55:17;99032.28;;;-3.21;80.39
62655;BME280;48717;55.556;37.816;2023-01-29T12:58:11;99008.63;;;-3.32;80.69
62655;BME280;48717;55.556;37.816;2023-01-29T13:00:45;98985.88;;;-3.43;80.52
62655;BME280;48717;55.556;37.816;2023-01-29T13:06:09;99026.13;;;-3.25;81.61
62655;BME280;48717;55.556;37.816;2023-01-29T13:08:44;99031.34;;;-3.23;81.14
62655;BME280;48717;55.556;37.816;2023-01-29T13:11:41;99032.22;;;-3.23;81.36
62655;BME280;48717;55.556;37.816;2023-01-29T13:14:34;99012.91;;;-3.33;81.39
62655;BME280;48717;55.556;37.816;2023-01-29T13:17:36;99014.31;;;-3.39;82.07
62655;BME280;48717;55.556;37.816;2023-01-29T13:20:27;99025.16;;;-3.27;82.18
62655;BME280;48717;55.556;37.816;2023-01-29T13:22:59;99038.94;;;-3.26;82.12
62655;BME280;48717;55.556;37.816;2023-01-29T13:25:30;98990.75;;;-3.49;82.45
62655;BME280;48717;55.556;37.816;2023-01-29T13:27:57;99011.50;;;-3.46;82.63
62655;BME280;48717;55.556;37.816;2023-01-29T13:30:30;99026.75;;;-3.31;83.10
62655;BME280;48717;55.556;37.816;2023-01-29T13:33:00;99016.34;;;-3.32;82.97
62655;BME280;48717;55.556;37.816;2023-01-29T13:35:41;99009.38;;;-3.35;83.20
62655;BME280;48717;55.556;37.816;2023-01-29T13:38:22;99005.53;;;-3.45;83.60
62655;BME280;48717;55.556;37.816;2023-01-29T13:40:53;98988.25;;;-3.47;84.20
62655;BME280;48717;55.556;37.816;2023-01-29T13:43:22;99015.28;;;-3.37;84.08
62655;BME280;48717;55.556;37.816;2023-01-29T13:45:51;99000.44;;;-3.43;84.67
62655;BME280;48717;55.556;37.816;2023-01-29T13:48:30;98987.25;;;-3.51;84.39
62655;BME280;48717;55.556;37.816;2023-01-29T13:51:02;98979.50;;;-3.51;84.29
62655;BME280;48717;55.556;37.816;2023-01-29T13:53:39;99001.44;;;-3.39;84.35
62655;BME280;48717;55.556;37.816;2023-01-29T13:56:40;99007.75;;;-3.33;84.79
62655;BME280;48717;55.556;37.816;2023-01-29T13:59:21;99004.16;;;-3.36;84.87
62655;BME280;48717;55.556;37.816;2023-01-29T14:04:23;99006.72;;;-3.36;85.62
62655;BME280;48717;55.556;37.816;2023-01-29T14:06:54;98976.78;;;-3.54;85.49
62655;BME280;48717;55.556;37.816;2023-01-29T14:17:20;98973.38;;;-3.53;85.99
62655;BME280;48717;55.556;37.816;2023-01-29T14:19:48;98990.13;;;-3.43;85.18
62655;BME280;48717;55.556;37.816;2023-01-29T14:22:25;98983.38;;;-3.39;85.65
62655;BME280;48717;55.556;37.816;2023-01-29T14:24:56;98965.56;;;-3.56;86.16
62655;BME280;48717;55.556;37.816;2023-01-29T14:27:26;98986.72;;;-3.42;85.95
62655;BME280;48717;55.556;37.816;2023-01-29T14:30:02;98980.44;;;-3.49;86.01
62655;BME280;48717;55.556;37.816;2023-01-29T14:32:30;98984.91;;;-3.45;86.49
62655;BME280;48717;55.556;37.816;2023-01-29T14:35:01;98989.13;;;-3.47;87.19
62655;BME280;48717;55.556;37.816;2023-01-29T14:37:37;98980.44;;;-3.49;86.43
62655;BME280;48717;55.556;37.816;2023-01-29T14:43:08;98980.19;;;-3.55;87.58
62655;BME280;48717;55.556;37.816;2023-01-29T14:45:46;98956.75;;;-3.61;87.19
62655;BME280;48717;55.556;37.816;2023-01-29T14:51:08;98975.88;;;-3.56;87.21
62655;BME280;48717;55.556;37.816;2023-01-29T14:53:44;98973.38;;;-3.53;87.54
62655;BME280;48717;55.556;37.816;2023-01-29T14:56:31;98978.44;;;-3.56;88.53
62655;BME280;48717;55.556;37.816;2023-01-29T14:59:21;98977.63;;;-3.55;88.01
62655;BME280;48717;55.556;37.816;2023-01-29T15:01:54;98975.03;;;-3.55;88.41
62655;BME280;48717;55.556;37.816;2023-01-29T15:04:40;98934.56;;;-3.79;88.24
62655;BME280;48717;55.556;37.816;2023-01-29T15:09:50;98956.75;;;-3.61;88.99
62655;BME280;48717;55.556;37.816;2023-01-29T15:12:35;98962.97;;;-3.56;88.68
62655;BME280;48717;55.556;37.816;2023-01-29T15:15:19;98976.66;;;-3.57;88.58
62655;BME280;48717;55.556;37.816;2023-01-29T15:17:58;98839.97;;;-4.44;88.32
62655;BME280;48717;55.556;37.816;2023-01-29T15:23:00;98966.34;;;-3.57;88.36
62655;BME280;48717;55.556;37.816;2023-01-29T15:25:47;98952.31;;;-3.64;88.61
62655;BME280;48717;55.556;37.816;2023-01-29T15:28:15;98953.91;;;-3.68;88.92
62655;BME280;48717;55.556;37.816;2023-01-29T15:30:43;98969.88;;;-3.55;88.91
62655;BME280;48717;55.556;37.816;2023-01-29T15:33:13;98978.44;;;-3.56;89.08
62655;BME280;48717;55.556;37.816;2023-01-29T15:35:41;98969.34;;;-3.68;89.15
62655;BME280;48717;55.556;37.816;2023-01-29T15:38:21;98982.09;;;-3.51;89.05
62655;BME280;48717;55.556;37.816;2023-01-29T15:40:58;98978.50;;;-3.55;89.90
62655;BME280;48717;55.556;37.816;2023-01-29T15:43:34;98967.84;;;-3.62;89.77
62655;BME280;48717;55.556;37.816;2023-01-29T15:46:10;98933.03;;;-3.74;90.46
62655;BME280;48717;55.556;37.816;2023-01-29T15:48:40;98872.81;;;-4.18;89.83
62655;BME280;48717;55.556;37.816;2023-01-29T15:51:14;98962.78;;;-3.61;90.98
62655;BME280;48717;55.556;37.816;2023-01-29T15:53:47;98944.16;;;-3.75;90.99
62655;BME280;48717;55.556;37.816;2023-01-29T15:56:19;98962.84;;;-3.59;91.32
62655;BME280;48717;55.556;37.816;2023-01-29T15:58:48;98924.94;;;-3.83;91.36
62655;BME280;48717;55.556;37.816;2023-01-29T16:01:17;98929.50;;;-3.76;90.65
62655;BME280;48717;55.556;37.816;2023-01-29T16:03:47;98955.94;;;-3.60;92.09
62655;BME280;48717;55.556;37.816;2023-01-29T16:06:14;98956.63;;;-3.64;91.88
62655;BME280;48717;55.556;37.816;2023-01-29T16:08:45;98915.16;;;-3.90;91.85
62655;BME280;48717;55.556;37.816;2023-01-29T16:11:14;98953.91;;;-3.68;91.52
62655;BME280;48717;55.556;37.816;2023-01-29T16:13:43;98957.31;;;-3.69;92.34
62655;BME280;48717;55.556;37.816;2023-01-29T16:18:43;98939.94;;;-3.73;92.20
62655;BME280;48717;55.556;37.816;2023-01-29T16:21:38;98945.25;;;-3.70;93.26
62655;BME280;48717;55.556;37.816;2023-01-29T16:24:09;98906.63;;;-3.89;92.21
62655;BME280;48717;55.556;37.816;2023-01-29T16:26:46;98929.66;;;-3.73;92.83